sensor_id;sensor_type;location;lat;lon;timestamp;P1;durP1;ratioP1;P2;durP2;ratioP2
43226;SDS011;28839;52.404;9.808;2023-07-20T00:01:11;2.22;;;0.65;;
43226;SDS011;28839;52.404;9.808;2023-07-20T00:08:05;1.80;;;0.80;;
43226;SDS011;28839;52.404;9.808;2023-07-20T00:15:00;2.17;;;1.00;;
43226;SDS011;28839;52.404;9.808;2023-07-20T00:21:54;3.87;;;1.23;;
43226;SDS011;28839;52.404;9.808;2023-07-20T00:28:49;1.30;;;1.20;;
43226;SDS011;28839;52.404;9.808;2023-07-20T00:35:45;1.60;;;1.30;;
43226;SDS011;28839;52.404;9.808;2023-07-20T00:42:38;1.25;;;1.12;;
43226;SDS011;28839;52.404;9.808;2023-07-20T00:49:32;1.80;;;1.13;;
43226;SDS011;28839;52.404;9.808;2023-07-20T00:56:27;1.20;;;1.10;;
43226;SDS011;28839;52.404;9.808;2023-07-20T01:03:22;0.95;;;0.82;;
43226;SDS011;28839;52.404;9.808;2023-07-20T01:10:16;1.27;;;1.07;;
43226;SDS011;28839;52.404;9.808;2023-07-20T01:17:19;1.67;;;0.80;;
43226;SDS011;28839;52.404;9.808;2023-07-20T01:24:29;2.33;;;1.10;;
43226;SDS011;28839;52.404;9.808;2023-07-20T01:31:38;2.05;;;1.10;;
43226;SDS011;28839;52.404;9.808;2023-07-20T01:38:33;1.25;;;1.12;;
43226;SDS011;28839;52.404;9.808;2023-07-20T01:45:27;3.25;;;1.40;;
43226;SDS011;28839;52.404;9.808;2023-07-20T01:52:22;3.10;;;1.30;;
43226;SDS011;28839;52.404;9.808;2023-07-20T01:59:16;1.95;;;1.52;;
43226;SDS011;28839;52.404;9.808;2023-07-20T02:06:10;1.90;;;1.60;;
43226;SDS011;28839;52.404;9.808;2023-07-20T02:13:05;2.40;;;1.80;;
43226;SDS011;28839;52.404;9.808;2023-07-20T02:19:59;1.85;;;1.42;;
43226;SDS011;28839;52.404;9.808;2023-07-20T02:26:52;3.27;;;1.33;;
43226;SDS011;28839;52.404;9.808;2023-07-20T02:33:48;4.23;;;1.93;;
43226;SDS011;28839;52.404;9.808;2023-07-20T02:40:41;1.75;;;1.62;;
43226;SDS011;28839;52.404;9.808;2023-07-20T02:47:35;3.47;;;2.00;;
43226;SDS011;28839;52.404;9.808;2023-07-20T02:54:31;2.25;;;1.98;;
43226;SDS011;28839;52.404;9.808;2023-07-20T03:01:24;3.75;;;2.60;;
43226;SDS011;28839;52.404;9.808;2023-07-20T03:08:21;3.90;;;2.20;;
43226;SDS011;28839;52.404;9.808;2023-07-20T03:15:16;3.20;;;2.20;;
43226;SDS011;28839;52.404;9.808;2023-07-20T03:22:10;2.40;;;1.80;;
43226;SDS011;28839;52.404;9.808;2023-07-20T03:29:04;4.80;;;2.07;;
43226;SDS011;28839;52.404;9.808;2023-07-20T03:36:00;4.00;;;2.20;;
43226;SDS011;28839;52.404;9.808;2023-07-20T03:42:54;2.17;;;1.90;;
43226;SDS011;28839;52.404;9.808;2023-07-20T03:49:48;3.37;;;2.27;;
43226;SDS011;28839;52.404;9.808;2023-07-20T03:56:43;4.47;;;2.20;;
43226;SDS011;28839;52.404;9.808;2023-07-20T04:03:36;4.72;;;2.92;;
43226;SDS011;28839;52.404;9.808;2023-07-20T04:10:30;3.93;;;2.43;;
43226;SDS011;28839;52.404;9.808;2023-07-20T04:17:26;2.50;;;2.00;;
43226;SDS011;28839;52.404;9.808;2023-07-20T04:24:20;3.15;;;1.98;;
43226;SDS011;28839;52.404;9.808;2023-07-20T04:31:14;3.03;;;2.03;;
43226;SDS011;28839;52.404;9.808;2023-07-20T04:38:10;2.40;;;2.20;;
43226;SDS011;28839;52.404;9.808;2023-07-20T04:45:04;2.83;;;2.40;;
43226;SDS011;28839;52.404;9.808;2023-07-20T04:51:58;2.83;;;2.53;;
43226;SDS011;28839;52.404;9.808;2023-07-20T04:58:53;4.00;;;2.50;;
43226;SDS011;28839;52.404;9.808;2023-07-20T05:05:47;4.00;;;2.92;;
43226;SDS011;28839;52.404;9.808;2023-07-20T05:12:41;6.90;;;3.60;;
43226;SDS011;28839;52.404;9.808;2023-07-20T05:19:36;4.30;;;3.87;;
43226;SDS011;28839;52.404;9.808;2023-07-20T05:26:30;5.78;;;3.55;;
43226;SDS011;28839;52.404;9.808;2023-07-20T05:40:20;4.62;;;4.22;;
43226;SDS011;28839;52.404;9.808;2023-07-20T05:47:13;4.90;;;4.47;;
43226;SDS011;28839;52.404;9.808;2023-07-20T05:54:07;4.87;;;4.53;;
43226;SDS011;28839;52.404;9.808;2023-07-20T06:01:03;3.70;;;3.23;;
43226;SDS011;28839;52.404;9.808;2023-07-20T06:07:58;5.45;;;5.07;;
43226;SDS011;28839;52.404;9.808;2023-07-20T06:14:53;6.07;;;5.55;;
43226;SDS011;28839;52.404;9.808;2023-07-20T06:21:48;5.80;;;5.30;;
43226;SDS011;28839;52.404;9.808;2023-07-20T06:28:42;6.28;;;5.78;;
43226;SDS011;28839;52.404;9.808;2023-07-20T06:35:36;9.50;;;8.97;;
43226;SDS011;28839;52.404;9.808;2023-07-20T06:42:31;6.13;;;5.67;;
43226;SDS011;28839;52.404;9.808;2023-07-20T06:49:25;5.57;;;4.97;;
43226;SDS011;28839;52.404;9.808;2023-07-20T06:56:20;7.72;;;7.07;;
43226;SDS011;28839;52.404;9.808;2023-07-20T07:03:15;6.07;;;5.63;;
43226;SDS011;28839;52.404;9.808;2023-07-20T07:10:09;5.78;;;5.37;;
43226;SDS011;28839;52.404;9.808;2023-07-20T07:17:03;6.12;;;5.68;;
43226;SDS011;28839;52.404;9.808;2023-07-20T07:23:59;3.22;;;2.58;;
43226;SDS011;28839;52.404;9.808;2023-07-20T07:30:54;2.50;;;1.90;;
43226;SDS011;28839;52.404;9.808;2023-07-20T07:37:48;3.25;;;1.75;;
43226;SDS011;28839;52.404;9.808;2023-07-20T07:44:44;3.28;;;2.20;;
43226;SDS011;28839;52.404;9.808;2023-07-20T07:51:37;3.62;;;2.45;;
43226;SDS011;28839;52.404;9.808;2023-07-20T07:58:31;4.15;;;1.20;;
43226;SDS011;28839;52.404;9.808;2023-07-20T08:05:26;2.78;;;1.30;;
43226;SDS011;28839;52.404;9.808;2023-07-20T08:12:23;2.58;;;1.30;;
43226;SDS011;28839;52.404;9.808;2023-07-20T08:19:17;3.00;;;1.75;;
43226;SDS011;28839;52.404;9.808;2023-07-20T08:26:12;2.50;;;1.00;;
43226;SDS011;28839;52.404;9.808;2023-07-20T08:33:05;1.02;;;0.90;;
43226;SDS011;28839;52.404;9.808;2023-07-20T08:39:59;1.85;;;1.00;;
43226;SDS011;28839;52.404;9.808;2023-07-20T08:46:55;2.00;;;1.00;;
43226;SDS011;28839;52.404;9.808;2023-07-20T08:53:50;2.55;;;1.00;;
43226;SDS011;28839;52.404;9.808;2023-07-20T09:00:44;1.95;;;0.98;;
43226;SDS011;28839;52.404;9.808;2023-07-20T09:07:45;1.23;;;0.85;;
43226;SDS011;28839;52.404;9.808;2023-07-20T09:14:39;0.50;;;0.50;;
43226;SDS011;28839;52.404;9.808;2023-07-20T09:21:36;2.78;;;0.70;;
43226;SDS011;28839;52.404;9.808;2023-07-20T09:28:31;0.93;;;0.65;;
43226;SDS011;28839;52.404;9.808;2023-07-20T09:35:35;0.62;;;0.60;;
43226;SDS011;28839;52.404;9.808;2023-07-20T09:42:29;1.05;;;0.57;;
43226;SDS011;28839;52.404;9.808;2023-07-20T09:49:24;2.15;;;0.60;;
43226;SDS011;28839;52.404;9.808;2023-07-20T09:56:18;0.70;;;0.60;;
43226;SDS011;28839;52.404;9.808;2023-07-20T10:03:16;4.47;;;0.70;;
43226;SDS011;28839;52.404;9.808;2023-07-20T10:10:14;2.47;;;0.80;;
43226;SDS011;28839;52.404;9.808;2023-07-20T10:17:10;1.67;;;0.80;;
43226;SDS011;28839;52.404;9.808;2023-07-20T10:24:06;0.80;;;0.75;;
43226;SDS011;28839;52.404;9.808;2023-07-20T10:31:02;0.80;;;0.73;;
43226;SDS011;28839;52.404;9.808;2023-07-20T10:38:05;6.93;;;0.90;;
43226;SDS011;28839;52.404;9.808;2023-07-20T10:44:58;1.42;;;0.80;;
43226;SDS011;28839;52.404;9.808;2023-07-20T10:51:59;6.80;;;0.77;;
43226;SDS011;28839;52.404;9.808;2023-07-20T10:58:57;3.95;;;0.80;;
43226;SDS011;28839;52.404;9.808;2023-07-20T11:05:52;2.80;;;0.75;;
43226;SDS011;28839;52.404;9.808;2023-07-20T11:20:12;1.10;;;0.90;;
43226;SDS011;28839;52.404;9.808;2023-07-20T11:27:07;3.42;;;1.87;;
43226;SDS011;28839;52.404;9.808;2023-07-20T11:34:03;2.67;;;0.90;;
43226;SDS011;28839;52.404;9.808;2023-07-20T11:40:56;2.25;;;0.80;;
43226;SDS011;28839;52.404;9.808;2023-07-20T11:47:50;0.82;;;0.62;;
43226;SDS011;28839;52.404;9.808;2023-07-20T12:01:39;1.85;;;0.60;;
43226;SDS011;28839;52.404;9.808;2023-07-20T12:08:34;2.92;;;0.90;;
43226;SDS011;28839;52.404;9.808;2023-07-20T12:15:32;1.20;;;0.70;;
43226;SDS011;28839;52.404;9.808;2023-07-20T12:22:26;0.73;;;0.70;;
43226;SDS011;28839;52.404;9.808;2023-07-20T12:29:20;2.65;;;0.77;;
43226;SDS011;28839;52.404;9.808;2023-07-20T12:36:15;2.80;;;0.93;;
43226;SDS011;28839;52.404;9.808;2023-07-20T12:43:09;0.93;;;0.70;;
43226;SDS011;28839;52.404;9.808;2023-07-20T12:50:03;1.42;;;0.70;;
43226;SDS011;28839;52.404;9.808;2023-07-20T12:56:59;1.42;;;0.70;;
43226;SDS011;28839;52.404;9.808;2023-07-20T13:03:55;4.53;;;0.90;;
43226;SDS011;28839;52.404;9.808;2023-07-20T13:10:49;2.60;;;1.50;;
43226;SDS011;28839;52.404;9.808;2023-07-20T13:17:45;1.80;;;0.90;;
43226;SDS011;28839;52.404;9.808;2023-07-20T13:24:39;2.83;;;1.30;;
43226;SDS011;28839;52.404;9.808;2023-07-20T13:38:28;3.97;;;1.20;;
43226;SDS011;28839;52.404;9.808;2023-07-20T13:45:22;3.45;;;1.15;;
43226;SDS011;28839;52.404;9.808;2023-07-20T13:52:15;6.28;;;1.35;;
43226;SDS011;28839;52.404;9.808;2023-07-20T13:59:11;5.05;;;1.05;;
43226;SDS011;28839;52.404;9.808;2023-07-20T14:06:04;2.95;;;1.30;;
43226;SDS011;28839;52.404;9.808;2023-07-20T14:12:58;2.37;;;1.70;;
43226;SDS011;28839;52.404;9.808;2023-07-20T14:19:54;3.75;;;0.98;;
43226;SDS011;28839;52.404;9.808;2023-07-20T14:26:47;3.30;;;1.20;;
43226;SDS011;28839;52.404;9.808;2023-07-20T14:33:41;1.37;;;1.20;;
43226;SDS011;28839;52.404;9.808;2023-07-20T14:40:36;1.98;;;0.90;;
43226;SDS011;28839;52.404;9.808;2023-07-20T14:47:30;3.75;;;1.10;;
43226;SDS011;28839;52.404;9.808;2023-07-20T14:54:27;3.40;;;0.98;;
43226;SDS011;28839;52.404;9.808;2023-07-20T15:08:16;4.03;;;1.75;;
43226;SDS011;28839;52.404;9.808;2023-07-20T15:15:11;1.60;;;1.25;;
43226;SDS011;28839;52.404;9.808;2023-07-20T15:22:07;2.72;;;1.00;;
43226;SDS011;28839;52.404;9.808;2023-07-20T15:29:01;2.08;;;0.80;;
43226;SDS011;28839;52.404;9.808;2023-07-20T15:35:55;1.85;;;0.90;;
43226;SDS011;28839;52.404;9.808;2023-07-20T15:42:50;2.00;;;0.93;;
43226;SDS011;28839;52.404;9.808;2023-07-20T15:49:44;1.45;;;0.90;;
43226;SDS011;28839;52.404;9.808;2023-07-20T15:56:38;1.90;;;0.90;;
43226;SDS011;28839;52.404;9.808;2023-07-20T16:03:34;3.12;;;1.37;;
43226;SDS011;28839;52.404;9.808;2023-07-20T16:10:28;3.33;;;1.20;;
43226;SDS011;28839;52.404;9.808;2023-07-20T16:17:22;5.57;;;1.30;;
43226;SDS011;28839;52.404;9.808;2023-07-20T16:24:17;2.70;;;1.20;;
43226;SDS011;28839;52.404;9.808;2023-07-20T16:31:11;2.50;;;1.35;;
43226;SDS011;28839;52.404;9.808;2023-07-20T16:38:05;2.33;;;1.33;;
43226;SDS011;28839;52.404;9.808;2023-07-20T16:45:01;1.62;;;1.10;;
43226;SDS011;28839;52.404;9.808;2023-07-20T16:51:55;3.10;;;1.23;;
43226;SDS011;28839;52.404;9.808;2023-07-20T16:58:48;2.85;;;1.17;;
43226;SDS011;28839;52.404;9.808;2023-07-20T17:05:44;2.95;;;1.37;;
43226;SDS011;28839;52.404;9.808;2023-07-20T17:12:38;1.87;;;1.08;;
43226;SDS011;28839;52.404;9.808;2023-07-20T17:19:32;2.95;;;1.25;;
43226;SDS011;28839;52.404;9.808;2023-07-20T17:26:28;4.82;;;1.10;;
43226;SDS011;28839;52.404;9.808;2023-07-20T17:33:22;2.75;;;1.17;;
43226;SDS011;28839;52.404;9.808;2023-07-20T17:40:16;1.67;;;1.17;;
43226;SDS011;28839;52.404;9.808;2023-07-20T17:47:13;1.92;;;1.20;;
43226;SDS011;28839;52.404;9.808;2023-07-20T17:54:07;2.65;;;1.60;;
43226;SDS011;28839;52.404;9.808;2023-07-20T18:01:01;2.72;;;1.35;;
43226;SDS011;28839;52.404;9.808;2023-07-20T18:07:56;3.40;;;1.10;;
43226;SDS011;28839;52.404;9.808;2023-07-20T18:14:50;4.32;;;1.65;;
43226;SDS011;28839;52.404;9.808;2023-07-20T18:21:45;2.50;;;1.20;;
43226;SDS011;28839;52.404;9.808;2023-07-20T18:28:40;6.78;;;1.42;;
43226;SDS011;28839;52.404;9.808;2023-07-20T18:35:33;3.87;;;1.15;;
43226;SDS011;28839;52.404;9.808;2023-07-20T18:42:27;1.37;;;1.00;;
43226;SDS011;28839;52.404;9.808;2023-07-20T18:49:22;2.97;;;1.50;;
43226;SDS011;28839;52.404;9.808;2023-07-20T18:56:17;3.22;;;1.40;;
43226;SDS011;28839;52.404;9.808;2023-07-20T19:03:11;2.90;;;1.30;;
43226;SDS011;28839;52.404;9.808;2023-07-20T19:10:07;3.33;;;1.35;;
43226;SDS011;28839;52.404;9.808;2023-07-20T19:17:03;4.50;;;1.48;;
43226;SDS011;28839;52.404;9.808;2023-07-20T19:30:53;2.95;;;1.37;;
43226;SDS011;28839;52.404;9.808;2023-07-20T19:37:47;2.12;;;1.10;;
43226;SDS011;28839;52.404;9.808;2023-07-20T19:44:40;3.80;;;1.80;;
43226;SDS011;28839;52.404;9.808;2023-07-20T19:51:36;3.50;;;1.40;;
43226;SDS011;28839;52.404;9.808;2023-07-20T19:58:30;3.42;;;1.73;;
43226;SDS011;28839;52.404;9.808;2023-07-20T20:05:24;4.05;;;2.30;;
43226;SDS011;28839;52.404;9.808;2023-07-20T20:12:20;3.65;;;1.62;;
43226;SDS011;28839;52.404;9.808;2023-07-20T20:19:16;3.50;;;1.90;;
43226;SDS011;28839;52.404;9.808;2023-07-20T20:26:10;9.83;;;3.20;;
43226;SDS011;28839;52.404;9.808;2023-07-20T20:33:05;9.83;;;4.30;;
43226;SDS011;28839;52.404;9.808;2023-07-20T20:39:59;16.10;;;8.23;;
43226;SDS011;28839;52.404;9.808;2023-07-20T20:53:53;21.83;;;13.57;;
43226;SDS011;28839;52.404;9.808;2023-07-20T21:00:47;16.50;;;9.38;;
43226;SDS011;28839;52.404;9.808;2023-07-20T21:07:41;15.77;;;7.47;;
43226;SDS011;28839;52.404;9.808;2023-07-20T21:14:36;9.93;;;6.10;;
43226;SDS011;28839;52.404;9.808;2023-07-20T21:21:30;8.43;;;5.22;;
43226;SDS011;28839;52.404;9.808;2023-07-20T21:28:24;9.63;;;5.17;;
43226;SDS011;28839;52.404;9.808;2023-07-20T21:35:19;9.53;;;6.23;;
43226;SDS011;28839;52.404;9.808;2023-07-20T21:42:13;10.70;;;5.50;;
43226;SDS011;28839;52.404;9.808;2023-07-20T21:49:06;10.17;;;5.97;;
43226;SDS011;28839;52.404;9.808;2023-07-20T21:56:01;9.97;;;5.50;;
43226;SDS011;28839;52.404;9.808;2023-07-20T22:02:55;7.57;;;4.45;;
43226;SDS011;28839;52.404;9.808;2023-07-20T22:09:49;7.32;;;4.57;;
43226;SDS011;28839;52.404;9.808;2023-07-20T22:16:45;6.27;;;3.53;;
43226;SDS011;28839;52.404;9.808;2023-07-20T22:23:38;5.22;;;3.22;;
43226;SDS011;28839;52.404;9.808;2023-07-20T22:30:32;5.57;;;2.73;;
43226;SDS011;28839;52.404;9.808;2023-07-20T22:37:27;7.50;;;2.83;;
43226;SDS011;28839;52.404;9.808;2023-07-20T22:44:21;7.45;;;2.92;;
43226;SDS011;28839;52.404;9.808;2023-07-20T22:51:15;6.30;;;2.90;;
43226;SDS011;28839;52.404;9.808;2023-07-20T22:58:11;11.77;;;3.08;;
43226;SDS011;28839;52.404;9.808;2023-07-20T23:05:05;8.77;;;3.12;;
43226;SDS011;28839;52.404;9.808;2023-07-20T23:11:59;10.15;;;2.60;;
43226;SDS011;28839;52.404;9.808;2023-07-20T23:18:55;11.93;;;2.70;;
43226;SDS011;28839;52.404;9.808;2023-07-20T23:25:53;7.07;;;2.80;;
43226;SDS011;28839;52.404;9.808;2023-07-20T23:32:47;9.90;;;2.85;;
43226;SDS011;28839;52.404;9.808;2023-07-20T23:39:43;7.75;;;2.87;;
43226;SDS011;28839;52.404;9.808;2023-07-20T23:46:38;5.05;;;2.25;;
43226;SDS011;28839;52.404;9.808;2023-07-20T23:53:32;6.32;;;2.60;;
